createdAt,value
2022-10-05T00:01:29.082Z,99819.97
2022-10-05T00:04:03.643Z,99817.47
2022-10-05T00:06:33.415Z,99818.47
2022-10-05T00:09:02.911Z,99821.81
2022-10-05T00:11:33.081Z,99820.13
2022-10-05T00:14:01.350Z,99808.50
2022-10-05T00:16:31.091Z,99799.19
2022-10-05T00:19:01.609Z,99806.34
2022-10-05T00:21:31.078Z,99805.00
2022-10-05T00:24:03.165Z,99799.19
2022-10-05T00:26:34.796Z,99799.13
2022-10-05T00:29:04.080Z,99807.47
2022-10-05T00:31:34.659Z,99807.59
2022-10-05T00:34:03.631Z,99805.28
2022-10-05T00:36:32.104Z,99805.94
2022-10-05T00:39:03.891Z,99808.94
2022-10-05T00:41:42.343Z,99798.47
2022-10-05T00:44:25.815Z,99807.44
2022-10-05T00:47:00.025Z,99793.31
2022-10-05T00:49:49.550Z,99787.19
2022-10-05T00:52:28.544Z,99790.66
2022-10-05T00:55:06.389Z,99779.88
2022-10-05T00:57:46.304Z,99794.47
2022-10-05T01:00:19.229Z,99787.50
2022-10-05T01:02:56.227Z,99803.44
2022-10-05T01:05:44.832Z,99807.09
2022-10-05T01:08:27.150Z,99804.09
2022-10-05T01:11:07.140Z,99802.44
2022-10-05T01:13:47.293Z,99807.06
2022-10-05T01:16:22.870Z,99803.59
2022-10-05T01:18:58.140Z,99795.81
2022-10-05T01:21:28.224Z,99802.94
2022-10-05T01:24:21.300Z,99808.75
2022-10-05T01:27:09.156Z,99818.38
2022-10-05T01:29:44.963Z,99858.53
2022-10-05T01:32:22.169Z,99845.28
2022-10-05T01:34:59.179Z,99842.63
2022-10-05T01:37:34.360Z,99828.22
2022-10-05T01:40:09.688Z,99827.38
2022-10-05T01:42:51.690Z,99823.38
2022-10-05T01:45:28.075Z,99816.47
2022-10-05T01:48:05.421Z,99810.53
2022-10-05T01:50:46.402Z,99818.47
2022-10-05T01:53:28.333Z,99815.44
2022-10-05T01:56:07.681Z,99804.97
2022-10-05T01:58:47.110Z,99815.03
2022-10-05T02:01:28.045Z,99825.63
2022-10-05T02:04:04.438Z,99813.75
2022-10-05T02:06:38.990Z,99815.72
2022-10-05T02:09:14.742Z,99818.75
2022-10-05T02:11:49.848Z,99814.56
2022-10-05T02:14:23.924Z,99812.63
2022-10-05T02:16:58.228Z,99810.97
2022-10-05T02:19:32.973Z,99799.38
2022-10-05T02:22:07.153Z,99795.59
2022-10-05T02:24:41.064Z,99792.66
2022-10-05T02:27:14.863Z,99795.47
2022-10-05T02:29:47.241Z,99802.41
2022-10-05T02:32:22.939Z,99793.09
2022-10-05T02:34:51.702Z,99800.75
2022-10-05T02:37:27.075Z,99800.75
2022-10-05T02:40:16.151Z,99798.47
2022-10-05T02:42:54.352Z,99787.72
2022-10-05T02:45:30.038Z,99791.22
2022-10-05T02:48:11.430Z,99790.09
2022-10-05T02:50:51.981Z,99790.25
2022-10-05T02:53:27.257Z,99794.69
2022-10-05T02:56:12.921Z,99803.78
2022-10-05T02:58:50.092Z,99807.25
2022-10-05T03:01:25.824Z,99813.69
2022-10-05T03:04:06.262Z,99813.22
2022-10-05T03:06:40.797Z,99818.16
2022-10-05T03:09:10.919Z,99818.16
2022-10-05T03:11:48.183Z,99809.25
2022-10-05T03:14:24.843Z,99821.09
2022-10-05T03:17:07.096Z,99829.06
2022-10-05T03:20:04.670Z,99842.13
2022-10-05T03:22:48.265Z,99861.13
2022-10-05T03:25:37.869Z,99877.06
2022-10-05T03:28:16.016Z,99881.53
2022-10-05T03:30:51.266Z,99886.44
2022-10-05T03:33:29.746Z,99872.09
2022-10-05T03:36:10.982Z,99874.22
2022-10-05T03:38:46.050Z,99860.31
2022-10-05T03:41:19.677Z,99850.31
2022-10-05T03:44:11.484Z,99846.81
2022-10-05T03:46:51.768Z,99847.84
2022-10-05T03:49:30.339Z,99839.50
2022-10-05T03:52:07.416Z,99838.94
2022-10-05T03:54:40.051Z,99847.03
2022-10-05T03:57:13.187Z,99865.13
2022-10-05T03:59:53.180Z,99865.69
2022-10-05T04:02:25.987Z,99863.47
2022-10-05T04:05:00.696Z,99871.53
2022-10-05T04:07:44.369Z,99872.22
2022-10-05T04:10:19.270Z,99850.53
2022-10-05T04:12:52.317Z,99838.72
2022-10-05T04:15:31.299Z,99854.31
2022-10-05T04:18:05.029Z,99852.34
2022-10-05T04:20:39.921Z,99847.78
2022-10-05T04:23:20.811Z,99846.25
2022-10-05T04:25:54.183Z,99829.56
2022-10-05T04:28:32.135Z,99839.41
2022-10-05T04:31:06.594Z,99838.31
2022-10-05T04:33:34.974Z,99845.84
2022-10-05T04:36:12.422Z,99839.56
2022-10-05T04:39:04.398Z,99845.97
2022-10-05T04:41:46.597Z,99841.66
2022-10-05T04:44:30.509Z,99824.28
2022-10-05T04:47:11.809Z,99826.53
2022-10-05T04:49:59.670Z,99828.84
2022-10-05T04:52:39.405Z,99837.09
2022-10-05T04:55:21.519Z,99833.31
2022-10-05T04:58:00.518Z,99840.41
2022-10-05T05:00:40.230Z,99841.66
2022-10-05T05:03:42.060Z,99854.19
2022-10-05T05:06:28.008Z,99852.63
2022-10-05T05:09:14.313Z,99840.66
2022-10-05T05:11:54.815Z,99850.00
2022-10-05T05:14:46.704Z,99859.31
2022-10-05T05:17:34.846Z,99855.41
2022-10-05T05:20:16.101Z,99856.50
2022-10-05T05:22:52.822Z,99848.06
2022-10-05T05:25:31.872Z,99861.78
2022-10-05T05:28:17.417Z,99851.78
2022-10-05T05:30:54.033Z,99860.41
2022-10-05T05:33:24.971Z,99863.19
2022-10-05T05:36:13.750Z,99863.59
2022-10-05T05:38:48.496Z,99862.91
2022-10-05T05:41:26.316Z,99859.41
2022-10-05T05:44:06.686Z,99866.50
2022-10-05T05:47:02.161Z,99874.81
2022-10-05T05:49:37.302Z,99880.94
2022-10-05T05:52:13.045Z,99865.25
2022-10-05T05:54:50.185Z,99859.00
2022-10-05T05:57:23.757Z,99852.88
2022-10-05T06:00:04.972Z,99850.53
2022-10-05T06:02:42.414Z,99854.13
2022-10-05T06:05:31.723Z,99852.47
2022-10-05T06:08:06.435Z,99848.16
2022-10-05T06:10:41.873Z,99852.34
2022-10-05T06:13:17.208Z,99859.00
2022-10-05T06:15:53.616Z,99859.69
2022-10-05T06:18:23.926Z,99862.34
2022-10-05T06:20:59.480Z,99871.25
2022-10-05T06:23:37.069Z,99874.56
2022-10-05T06:26:17.141Z,99879.84
2022-10-05T06:28:51.600Z,99878.88
2022-10-05T06:31:36.547Z,99878.19
2022-10-05T06:34:18.599Z,99872.91
2022-10-05T06:36:52.432Z,99875.25
2022-10-05T06:39:51.642Z,99874.31
2022-10-05T06:42:41.455Z,99872.59
2022-10-05T06:45:21.935Z,99882.06
2022-10-05T06:48:01.571Z,99880.00
2022-10-05T06:50:38.586Z,99893.03
2022-10-05T06:53:29.360Z,99898.88
2022-10-05T06:56:09.054Z,99909.44
2022-10-05T06:58:50.627Z,99923.72
2022-10-05T07:01:30.530Z,99920.09
2022-10-05T07:04:25.921Z,99928.16
2022-10-05T07:06:59.355Z,99929.00
2022-10-05T07:09:38.874Z,99926.34
2022-10-05T07:12:35.281Z,99930.53
2022-10-05T07:15:21.256Z,99928.16
2022-10-05T07:18:02.790Z,99926.34
2022-10-05T07:20:38.956Z,99937.03
2022-10-05T07:23:28.006Z,99939.16
2022-10-05T07:26:06.278Z,99928.38
2022-10-05T07:28:45.533Z,99930.81
2022-10-05T07:31:25.708Z,99924.09
2022-10-05T07:34:03.910Z,99917.84
2022-10-05T07:36:58.574Z,99927.56
2022-10-05T07:39:59.056Z,99932.56
2022-10-05T07:42:48.784Z,99913.28
2022-10-05T07:45:29.880Z,99902.59
2022-10-05T07:48:01.613Z,99909.81
2022-10-05T07:50:38.840Z,99907.03
2022-10-05T07:53:17.820Z,99921.91
2022-10-05T07:55:51.651Z,99926.94
2022-10-05T07:58:28.137Z,99935.28
2022-10-05T08:01:08.497Z,99946.38
2022-10-05T08:03:52.584Z,99952.59
2022-10-05T08:06:42.704Z,99954.00
2022-10-05T08:09:42.788Z,99972.22
2022-10-05T08:12:24.526Z,99983.47
2022-10-05T08:15:02.015Z,99993.53
2022-10-05T08:17:46.722Z,99972.66
2022-10-05T08:24:08.148Z,99979.66
2022-10-05T08:26:51.809Z,99993.56
2022-10-05T08:29:27.824Z,99981.03
2022-10-05T08:32:00.876Z,99977.72
2022-10-05T08:34:36.264Z,99981.75
2022-10-05T08:37:10.110Z,100003.47
2022-10-05T08:39:47.049Z,100011.63
2022-10-05T08:43:19.639Z,100014.03
2022-10-05T08:46:42.416Z,99997.34
2022-10-05T08:49:47.891Z,100000.41
2022-10-05T08:52:29.680Z,99999.28
2022-10-05T08:55:24.628Z,100006.38
2022-10-05T08:58:33.485Z,100008.88
2022-10-05T09:01:11.728Z,100002.22
2022-10-05T09:04:21.516Z,100014.16
2022-10-05T09:07:31.754Z,100004.16
2022-10-05T09:10:41.644Z,100005.56
2022-10-05T09:13:38.408Z,100010.84
2022-10-05T09:16:35.770Z,100019.59
2022-10-05T09:19:54.616Z,100024.50
2022-10-05T09:22:44.049Z,100023.66
2022-10-05T09:25:30.119Z,100025.06
2022-10-05T09:28:17.018Z,100026.59
2022-10-05T09:31:06.550Z,100036.78
2022-10-05T09:34:14.829Z,100024.25
2022-10-05T09:37:31.589Z,100030.94
2022-10-05T09:40:41.562Z,100038.44
2022-10-05T09:43:34.125Z,100036.78
2022-10-05T09:46:30.847Z,100045.72
2022-10-05T09:49:48.437Z,100034.44
2022-10-05T09:52:58.600Z,100044.75
2022-10-05T09:56:20.528Z,100045.00
2022-10-05T09:59:31.550Z,100048.22
2022-10-05T10:02:23.521Z,100037.09
2022-10-05T10:05:26.867Z,100046.69
2022-10-05T10:08:16.866Z,100051.16
2022-10-05T10:11:13.242Z,100054.22
2022-10-05T10:14:17.032Z,100049.19
2022-10-05T10:17:02.074Z,100059.66
2022-10-05T10:19:59.367Z,100056.44
2022-10-05T10:23:01.336Z,100064.09
2022-10-05T10:25:59.317Z,100067.28
2022-10-05T10:29:00.705Z,100058.06
2022-10-05T10:31:50.666Z,100058.47
2022-10-05T10:34:54.701Z,100067.47
2022-10-05T10:38:05.633Z,100059.28
2022-10-05T10:40:48.034Z,100057.47
2022-10-05T10:44:05.929Z,100067.81
2022-10-05T10:46:45.136Z,100072.25
2022-10-05T10:49:37.618Z,100074.34
2022-10-05T10:52:39.061Z,100078.00
2022-10-05T10:55:29.064Z,100080.97
2022-10-05T10:58:46.126Z,100087.22
2022-10-05T11:01:34.520Z,100082.19
2022-10-05T11:04:25.857Z,100094.16
2022-10-05T11:07:29.238Z,100087.03
2022-10-05T11:10:12.398Z,100082.94
2022-10-05T11:13:25.094Z,100074.22
2022-10-05T11:16:48.266Z,100069.28
2022-10-05T11:20:03.964Z,100072.63
2022-10-05T11:22:59.833Z,100070.53
2022-10-05T11:25:44.538Z,100086.22
2022-10-05T11:28:45.033Z,100090.72
2022-10-05T11:31:49.063Z,100086.91
2022-10-05T11:34:36.686Z,100083.06
2022-10-05T11:37:37.239Z,100062.06
2022-10-05T11:40:37.854Z,100058.09
2022-10-05T11:44:07.033Z,100046.41
2022-10-05T11:46:46.404Z,100067.63
2022-10-05T11:49:34.440Z,100058.72
2022-10-05T11:52:10.486Z,100064.94
2022-10-05T11:55:10.336Z,100052.66
2022-10-05T11:57:47.932Z,100059.19
2022-10-05T12:00:21.240Z,100052.38
2022-10-05T12:03:12.018Z,100063.00
2022-10-05T12:05:52.238Z,100058.22
2022-10-05T12:08:31.839Z,100060.53
2022-10-05T12:11:09.445Z,100064.47
2022-10-05T12:13:47.299Z,100070.97
2022-10-05T12:16:24.517Z,100073.63
2022-10-05T12:19:01.953Z,100088.38
2022-10-05T12:21:45.800Z,100099.84
2022-10-05T12:24:26.833Z,100094.16
2022-10-05T12:27:03.039Z,100116.94
2022-10-05T12:29:39.754Z,100117.03
2022-10-05T12:32:14.563Z,100134.41
2022-10-05T12:34:50.976Z,100148.19
2022-10-05T12:37:42.374Z,100150.25
2022-10-05T12:40:27.476Z,100166.03
2022-10-05T12:43:06.177Z,100168.59
2022-10-05T12:45:53.197Z,100177.66
2022-10-05T12:48:38.154Z,100185.28
2022-10-05T12:51:13.957Z,100179.06
2022-10-05T12:53:53.755Z,100188.97
2022-10-05T12:56:32.904Z,100200.53
2022-10-05T12:59:07.435Z,100225.16
2022-10-05T13:01:43.110Z,100226.44
2022-10-05T13:04:23.793Z,100248.41
2022-10-05T13:07:20.502Z,100244.56
2022-10-05T13:09:59.611Z,100255.47
2022-10-05T13:12:49.095Z,100249.03
2022-10-05T13:15:41.936Z,100260.53
2022-10-05T13:18:27.959Z,100254.50
2022-10-05T13:21:06.084Z,100279.19
2022-10-05T13:23:57.385Z,100269.63
2022-10-05T13:26:58.317Z,100304.38
2022-10-05T13:29:30.516Z,100287.22
2022-10-05T13:32:06.368Z,100305.31
2022-10-05T13:34:51.999Z,100300.78
2022-10-05T13:37:40.350Z,100284.09
2022-10-05T13:40:43.658Z,100288.44
2022-10-05T13:43:42.358Z,100295.13
2022-10-05T13:46:19.162Z,100297.25
2022-10-05T13:49:01.072Z,100290.72
2022-10-05T13:51:42.296Z,100288.34
2022-10-05T13:54:18.826Z,100284.03
2022-10-05T13:56:53.426Z,100275.16
2022-10-05T13:59:32.528Z,100270.66
2022-10-05T14:02:06.702Z,100265.81
2022-10-05T14:04:48.842Z,100254.25
2022-10-05T14:07:34.406Z,100235.47
2022-10-05T14:10:13.040Z,100230.47
2022-10-05T14:12:44.607Z,100233.03
2022-10-05T14:15:24.403Z,100228.31
2022-10-05T14:17:57.369Z,100222.47
2022-10-05T14:20:31.595Z,100221.06
2022-10-05T14:23:05.257Z,100217.28
2022-10-05T14:25:50.348Z,100231.34
2022-10-05T14:28:28.811Z,100237.66
2022-10-05T14:31:08.143Z,100239.41
2022-10-05T14:33:38.723Z,100234.41
2022-10-05T14:36:16.589Z,100249.06
2022-10-05T14:38:57.107Z,100258.94
2022-10-05T14:41:28.410Z,100263.38
2022-10-05T14:44:21.842Z,100243.97
2022-10-05T14:46:56.686Z,100247.69
2022-10-05T14:49:32.673Z,100254.84
2022-10-05T14:52:01.692Z,100262.44
2022-10-05T14:54:42.889Z,100264.63
2022-10-05T14:57:26.137Z,100287.34
2022-10-05T15:00:09.409Z,100287.69
2022-10-05T15:02:55.770Z,100280.91
2022-10-05T15:05:32.121Z,100287.63
2022-10-05T15:08:14.779Z,100281.63
2022-10-05T15:10:50.197Z,100283.97
2022-10-05T15:13:22.274Z,100293.97
2022-10-05T15:15:54.919Z,100297.63
2022-10-05T15:18:36.834Z,100308.16
2022-10-05T15:21:24.172Z,100317.75
2022-10-05T15:23:58.582Z,100327.03
2022-10-05T15:26:39.474Z,100325.16
2022-10-05T15:29:20.069Z,100346.78
2022-10-05T15:31:59.716Z,100343.47
2022-10-05T15:34:39.051Z,100336.31
2022-10-05T15:37:18.868Z,100357.03
2022-10-05T15:39:55.698Z,100351.00
2022-10-05T15:42:31.734Z,100391.97
2022-10-05T15:45:08.194Z,100371.81
2022-10-05T15:47:49.407Z,100392.69
2022-10-05T15:50:26.417Z,100400.34
2022-10-05T15:53:03.286Z,100407.59
2022-10-05T15:55:40.534Z,100417.38
2022-10-05T15:58:22.343Z,100426.25
2022-10-05T16:00:59.061Z,100425.75
2022-10-05T16:03:37.508Z,100467.53
2022-10-05T16:06:33.798Z,100458.53
2022-10-05T16:09:10.249Z,100465.84
2022-10-05T16:11:53.322Z,100461.19
2022-10-05T16:14:47.025Z,100485.72
2022-10-05T16:17:25.773Z,100487.25
2022-10-05T16:20:06.687Z,100515.66
2022-10-05T16:22:43.583Z,100514.78
2022-10-05T16:25:21.869Z,100537.19
2022-10-05T16:28:05.849Z,100547.56
2022-10-05T16:30:48.827Z,100542.09
2022-10-05T16:33:27.252Z,100567.91
2022-10-05T16:36:09.877Z,100575.66
2022-10-05T16:38:49.782Z,100585.22
2022-10-05T16:41:28.565Z,100587.53
2022-10-05T16:44:06.152Z,100586.84
2022-10-05T16:46:43.181Z,100615.44
2022-10-05T16:49:25.699Z,100604.22
2022-10-05T16:51:59.286Z,100596.13
2022-10-05T16:54:49.957Z,100627.44
2022-10-05T16:57:24.337Z,100623.38
2022-10-05T17:00:20.944Z,100640.38
2022-10-05T17:03:18.462Z,100648.06
2022-10-05T17:06:14.999Z,100642.63
2022-10-05T17:09:00.852Z,100657.00
2022-10-05T17:11:44.949Z,100671.72
2022-10-05T17:14:27.441Z,100673.56
2022-10-05T17:17:17.014Z,100688.00
2022-10-05T17:20:03.147Z,100701.34
2022-10-05T17:22:42.345Z,100715.50
2022-10-05T17:25:25.748Z,100714.31
2022-10-05T17:27:58.226Z,100732.41
2022-10-05T17:30:51.563Z,100749.56
2022-10-05T17:33:27.697Z,100758.56
2022-10-05T17:36:19.736Z,100766.13
2022-10-05T17:38:52.842Z,100766.84
2022-10-05T17:41:33.126Z,100780.63
2022-10-05T17:44:30.569Z,100782.66
2022-10-05T17:47:00.810Z,100798.63
2022-10-05T17:50:17.250Z,100806.97
2022-10-05T17:53:09.717Z,100812.47
2022-10-05T17:55:46.279Z,100820.88
2022-10-05T17:59:07.721Z,100824.97
2022-10-05T18:01:42.228Z,100848.13
2022-10-05T18:04:39.534Z,100857.13
2022-10-05T18:07:26.724Z,100871.81
2022-10-05T18:10:02.515Z,100883.41
2022-10-05T18:12:50.221Z,100883.88
2022-10-05T18:15:46.205Z,100896.94
2022-10-05T18:18:57.510Z,100912.69
2022-10-05T18:21:38.139Z,100921.78
2022-10-05T18:24:49.161Z,100921.47
2022-10-05T18:28:01.093Z,100932.66
2022-10-05T18:30:35.541Z,100956.00
2022-10-05T18:33:50.004Z,100958.72
2022-10-05T18:36:38.195Z,100978.88
2022-10-05T18:39:32.546Z,100977.50
2022-10-05T18:42:15.718Z,100990.78
2022-10-05T18:44:50.966Z,101001.53
2022-10-05T18:47:24.366Z,101005.97
2022-10-05T18:50:10.860Z,101019.16
2022-10-05T18:52:56.850Z,101030.00
2022-10-05T18:55:32.899Z,101031.31
2022-10-05T18:58:16.107Z,101038.03
2022-10-05T19:01:02.707Z,101043.72
2022-10-05T19:03:38.842Z,101054.91
2022-10-05T19:06:19.477Z,101055.22
2022-10-05T19:08:58.297Z,101056.34
2022-10-05T19:11:33.454Z,101061.63
2022-10-05T19:14:11.422Z,101069.00
2022-10-05T19:16:56.033Z,101068.25
2022-10-05T19:19:54.949Z,101066.66
2022-10-05T19:22:39.090Z,101071.94
2022-10-05T19:25:29.877Z,101079.94
2022-10-05T19:28:12.413Z,101095.34
2022-10-05T19:30:54.195Z,101103.69
2022-10-05T19:33:35.054Z,101113.97
2022-10-05T19:36:20.498Z,101123.47
2022-10-05T19:39:03.543Z,101126.38
2022-10-05T19:41:47.162Z,101131.03
2022-10-05T19:44:29.833Z,101132.72
2022-10-05T19:47:03.376Z,101145.72
2022-10-05T19:49:50.605Z,101160.50
2022-10-05T19:52:28.633Z,101167.84
2022-10-05T19:55:13.275Z,101168.69
2022-10-05T19:57:50.071Z,101162.75
2022-10-05T20:00:24.948Z,101168.88
2022-10-05T20:02:58.103Z,101185.75
2022-10-05T20:05:26.670Z,101188.94
2022-10-05T20:07:55.242Z,101202.38
2022-10-05T20:10:29.839Z,101196.56
2022-10-05T20:13:02.758Z,101218.47
2022-10-05T20:15:51.133Z,101214.72
2022-10-05T20:19:05.964Z,101218.38
2022-10-05T20:21:47.475Z,101233.06
2022-10-05T20:24:19.012Z,101239.38
2022-10-05T20:27:16.184Z,101246.53
2022-10-05T20:29:47.070Z,101253.75
2022-10-05T20:32:18.230Z,101256.66
2022-10-05T20:34:48.592Z,101263.16
2022-10-05T20:37:20.174Z,101265.34
2022-10-05T20:39:48.774Z,101266.28
2022-10-05T20:42:20.125Z,101277.84
2022-10-05T20:44:55.764Z,101295.34
2022-10-05T20:47:25.920Z,101302.03
2022-10-05T20:50:02.218Z,101311.81
2022-10-05T20:52:33.371Z,101316.25
2022-10-05T20:55:02.047Z,101317.84
2022-10-05T20:57:30.484Z,101330.00
2022-10-05T21:00:00.613Z,101331.94
2022-10-05T21:02:29.105Z,101345.91
2022-10-05T21:04:57.557Z,101345.78
2022-10-05T21:07:26.482Z,101351.16
2022-10-05T21:10:01.373Z,101365.19
2022-10-05T21:12:31.851Z,101365.34
2022-10-05T21:15:05.073Z,101367.81
2022-10-05T21:17:35.540Z,101361.88
2022-10-05T21:20:03.986Z,101374.47
2022-10-05T21:22:32.491Z,101373.81
2022-10-05T21:25:00.963Z,101369.47
2022-10-05T21:27:29.410Z,101374.56
2022-10-05T21:29:58.079Z,101383.91
2022-10-05T21:32:28.311Z,101378.53
2022-10-05T21:34:57.461Z,101377.41
2022-10-05T21:37:25.928Z,101387.00
2022-10-05T21:39:55.482Z,101389.31
2022-10-05T21:42:23.814Z,101378.56
2022-10-05T21:44:53.218Z,101389.31
2022-10-05T21:47:21.878Z,101389.94
2022-10-05T21:49:51.912Z,101394.47
2022-10-05T21:52:20.486Z,101398.81
2022-10-05T21:54:49.368Z,101396.94
2022-10-05T21:57:20.853Z,101405.41
2022-10-05T21:59:50.701Z,101398.44
2022-10-05T22:02:23.360Z,101406.25
2022-10-05T22:04:54.697Z,101414.06
2022-10-05T22:07:23.275Z,101435.31
2022-10-05T22:09:52.827Z,101434.41
2022-10-05T22:12:23.782Z,101439.41
2022-10-05T22:14:52.812Z,101431.41
2022-10-05T22:17:25.930Z,101447.22
2022-10-05T22:19:56.971Z,101428.31
2022-10-05T22:22:28.147Z,101436.00
2022-10-05T22:24:59.334Z,101426.31
2022-10-05T22:27:30.863Z,101439.59
2022-10-05T22:30:01.838Z,101436.00
2022-10-05T22:32:31.846Z,101436.78
2022-10-05T22:35:01.815Z,101443.91
2022-10-05T22:37:33.807Z,101441.28
2022-10-05T22:40:02.537Z,101428.88
2022-10-05T22:42:31.146Z,101445.69
2022-10-05T22:44:59.864Z,101436.00
2022-10-05T22:47:28.383Z,101436.00
2022-10-05T22:49:56.924Z,101441.09
2022-10-05T22:52:27.597Z,101449.09
2022-10-05T22:54:56.247Z,101456.81
2022-10-05T22:57:25.217Z,101457.66
2022-10-05T22:59:54.797Z,101460.03
2022-10-05T23:02:23.207Z,101449.75
2022-10-05T23:04:51.656Z,101462.03
2022-10-05T23:07:21.232Z,101462.28
2022-10-05T23:09:51.082Z,101471.03
2022-10-05T23:12:19.652Z,101462.28
2022-10-05T23:14:48.273Z,101463.03
2022-10-05T23:17:21.537Z,101478.09
2022-10-05T23:19:50.383Z,101464.38
2022-10-05T23:22:21.205Z,101466.25
2022-10-05T23:24:51.419Z,101473.41
2022-10-05T23:27:20.230Z,101482.56
2022-10-05T23:29:48.634Z,101474.94
2022-10-05T23:32:18.847Z,101474.16
2022-10-05T23:34:49.702Z,101488.28
2022-10-05T23:37:22.841Z,101487.50
2022-10-05T23:39:53.404Z,101490.06
2022-10-05T23:42:21.912Z,101486.31
2022-10-05T23:44:50.375Z,101489.81
2022-10-05T23:47:21.003Z,101483.00
2022-10-05T23:49:49.530Z,101490.25
2022-10-05T23:52:18.460Z,101487.88
2022-10-05T23:54:46.941Z,101492.28
2022-10-05T23:57:19.734Z,101492.88
2022-10-05T23:59:50.497Z,101493.03
